Warning: Javascript must be enabled to use all the features on this page!


Page Loading - Please Wait...

Click to hideNews Bulletins

Peak Streamflow for the Nation

USGS 03598000 DUCK RIVER NEAR SHELBYVILLE, TN

Bedford County, Tennessee
Hydrologic Unit Code 06040002
Latitude  35°28'49", Longitude  86°29'57" NAD27
Drainage area 481  square miles
Gage datum 683.51 feet above NGVD29
Output formats
Table
Graph
Tab-separated file
peakfq (watstore) format
Reselect output format
Water
Year
Date Gage
Height
(feet)
Stream-
flow
(cfs)
1902 1902-03-29   87,0007
1929 1929-03-23   70,0007
1935 1935-04-06   17,900
1936 1936-04-06   15,000
1937 1937-01-03   24,200
1938 1938-01-22   7,910
1939 1939-02-15   22,400
1940 1940-03-12   7,500
1941 1941-04-04   8,740
1942 1942-03-17   7,680
1943 1942-12-29   15,200
1944 1944-03-29   20,000
1945 1945-02-22   17,900
1946 1946-01-08   20,000
1947 1947-01-02   14,800
1948 1948-02-13   62,900
1949 1949-01-06   34,400
1950 1950-01-31   17,700
1951 1951-02-01   27,100
1952 1952-01-28   17,600
1953 1953-02-12   14,700
1954 1954-01-22   17,700
1955 1955-03-22   37,900
1956 1956-01-20   15,400
1957 1957-02-01   23,500
1958 1957-11-19   23,400
1959 1959-05-27   7,500
1960 1959-12-19   9,720
1961 1961-03-08   25,200
1962 1962-04-12   17,100
1963 1963-03-12   31,300
1964 1964-03-15   13,800
1965 1965-03-26   16,600
1966 1966-02-13 14.64 6,110
1967 1966-12-10 26.47 19,000
1968 1968-03-12 24.10 15,300
1969 1969-02-02 20.93 11,600
1970 1969-12-31 33.88 36,900
1971 1971-02-22 19.52 10,400
1972 1972-01-02 20.64 11,400
1973 1973-03-16 35.88 44,100
1974 1974-01-11 32.24 32,300
1975 1975-03-14 32.53 33,000
1976 1975-10-18 27.13 19,9006
1977 1977-04-04 24.68 15,5006
1978 1978-05-08 21.38 11,9006
1979 1979-03-04 20.34 10,9006
1980 1980-03-21 27.64 21,0006
1981 1981-03-30 10.61 3,9306
1982 1982-01-04 24.53 15,4006
1983 1983-04-06 27.39 20,5006
1984 1984-05-08 20.95 11,5006
1985 1984-11-28 21.95 12,5006
1986 1986-02-18 15.25 7,0406
1987 1986-11-09 21.94 12,5006
1988 1988-01-20 19.05 9,8906
1989 1989-03-06 25.41 16,8006
1990 1989-10-02 22.19 12,7006
1991 1990-12-23 29.88 26,1006
1992 1991-12-03 25.98 18,5006
1993 1993-05-04 16.97 8,8806
1994 1994-03-28 27.83 21,5006
1995 1994-11-28 19.13 10,800
1996 1995-11-28 19.18 10,8006
1997 1996-10-05 21.64 13,1006
1998 1997-12-01 26.36 18,9006
1999 1999-01-23 26.46 19,0006
2000 2000-04-04 21.61 13,1006
2001 2001-02-17 22.07 13,6006
2002 2002-02-17 22.07 13,6006
2003 2003-05-07 33.46 37,2006
2004 2004-02-06 26.07 18,4006
2005 2004-12-01 22.21 13,6006
2006 2006-01-23 24.05 15,8006
2007 2007-01-05 15.30 7,6206
2008 2008-04-04 14.17 6,8306
2009 2009-05-04 25.73 19,1006
2010 2010-05-03 21.69 14,0006
2011 2011-04-28 24.37 17,3006
2012 2012-09-18 16.76 10,1006
2013 2013-07-05 21.36 15,1006
2014 2014-03-03 14.28 7,6606
2015 2015-01-04 15.97 8,4406
2016 2015-12-26 20.24 12,5006
2017 2017-04-23 16.86 9,1906
2018 2018-03-01 26.84 21,3006
2019 2019-02-24 30.66 30,3006
2020 2020-02-06 23.21 15,9006
2021 2021-09-20 29.33 24,2006
?
  Peak Streamflow Qualification Codes.